Time;durP1;ratioP1;P1;durP2;ratioP2;P2;SDS_P1;SDS_P2;PMS_P1;PMS_P2;Temp;Humidity;BMP_temperature;BMP_pressure;BME280_temperature;BME280_humidity;BME280_pressure;Samples;Min_cycle;Max_cycle;Signal;HPM_P1;HPM_P2
2023/03/30 00:01:13;;;;;;;5.17;1.87;;;;;;;14.37;66.56;97786.59;5071920;28;20235;-78
2023/03/30 00:03:41;;;;;;;7.43;2.60;;;;;;;14.40;66.84;97791.63;5072435;28;20202;-78
2023/03/30 00:06:09;;;;;;;8.80;2.47;;;;;;;14.40;66.46;97786.31;5072300;28;20213;-78
2023/03/30 00:08:37;;;;;;;9.93;2.20;;;;;;;14.36;66.62;97780.44;5072117;28;20217;-78
2023/03/30 00:11:05;;;;;;;8.80;2.30;;;;;;;14.35;65.76;97783.25;5071710;28;20230;-78
2023/03/30 00:13:32;;;;;;;9.97;2.23;;;;;;;14.40;65.85;97781.00;5072167;28;20256;-78
2023/03/30 00:16:00;;;;;;;8.23;2.23;;;;;;;14.40;65.70;97786.31;5072043;28;20213;-78
2023/03/30 00:18:28;;;;;;;6.40;2.47;;;;;;;14.39;65.67;97777.50;5072112;28;20311;-78
2023/03/30 00:20:55;;;;;;;6.30;2.03;;;;;;;14.35;66.13;97777.94;5071634;28;20260;-78
2023/03/30 00:23:22;;;;;;;8.17;1.97;;;;;;;14.35;66.73;97777.94;5071822;28;20206;-78
2023/03/30 00:25:49;;;;;;;8.80;2.33;;;;;;;14.32;66.52;97778.19;5071833;28;20211;-78
2023/03/30 00:28:15;;;;;;;6.43;2.00;;;;;;;14.29;66.94;97773.16;5071904;28;20700;-79
2023/03/30 00:30:42;;;;;;;7.37;2.00;;;;;;;14.24;66.67;97776.22;5071332;28;20265;-77
2023/03/30 00:33:10;;;;;;;8.97;2.17;;;;;;;14.22;66.48;97758.72;5071719;28;20280;-77
2023/03/30 00:35:36;;;;;;;7.57;2.23;;;;;;;14.22;66.62;97764.03;5071652;28;20217;-77
2023/03/30 00:38:03;;;;;;;5.27;2.20;;;;;;;14.19;66.78;97753.69;5071540;28;20577;-77
2023/03/30 00:40:31;;;;;;;6.87;2.40;;;;;;;14.20;66.50;97747.38;5071267;28;20300;-77
2023/03/30 00:42:59;;;;;;;4.27;1.60;;;;;;;14.25;66.08;97737.19;5071734;28;20225;-77
2023/03/30 00:45:26;;;;;;;5.27;2.13;;;;;;;14.29;65.67;97735.94;5071813;28;20286;-77
2023/03/30 00:48:00;;;;;;;6.30;1.93;;;;;;;14.34;65.18;97728.38;5071179;28;20704;-79
2023/03/30 00:50:34;;;;;;;9.07;2.87;;;;;;;14.36;65.69;97729.09;5070868;28;20256;-77
2023/03/30 00:53:07;;;;;;;5.33;2.10;;;;;;;14.43;65.19;97728.38;5071703;28;20212;-77
2023/03/30 00:55:37;;;;;;;7.87;2.00;;;;;;;14.46;65.43;97721.94;5071444;28;20213;-77
2023/03/30 00:58:05;;;;;;;6.80;1.80;;;;;;;14.44;65.75;97724.75;5071223;28;20688;-77
2023/03/30 01:00:33;;;;;;;5.57;1.73;;;;;;;14.41;65.87;97713.53;5070683;28;20221;-77
2023/03/30 01:03:02;;;;;;;6.43;1.97;;;;;;;14.38;66.01;97721.81;5071429;28;20252;-77
2023/03/30 01:05:31;;;;;;;6.53;2.17;;;;;;;14.40;65.89;97711.88;5071588;28;20202;-77
2023/03/30 01:07:58;;;;;;;6.50;2.23;;;;;;;14.42;65.56;97704.59;5071178;28;20219;-77
2023/03/30 01:10:25;;;;;;;10.83;2.47;;;;;;;14.48;65.35;97698.72;5070728;28;20240;-77
2023/03/30 01:12:52;;;;;;;5.17;2.00;;;;;;;14.42;65.60;97693.97;5071076;28;20581;-77
2023/03/30 01:15:20;;;;;;;7.20;1.90;;;;;;;14.41;65.63;97700.25;5071037;28;20244;-77
2023/03/30 01:18:01;;;;;;;6.67;2.17;;;;;;;14.41;65.90;97708.22;5070867;28;20216;-77
2023/03/30 01:20:54;;;;;;;6.70;2.57;;;;;;;14.49;65.60;97682.63;5070877;28;20225;-77
2023/03/30 01:23:38;;;;;;;8.43;1.80;;;;;;;14.55;65.65;97694.53;5071078;28;20205;-77
2023/03/30 01:26:35;;;;;;;9.13;2.33;;;;;;;14.62;65.97;97698.28;5071045;28;20557;-77
2023/03/30 01:29:15;;;;;;;7.27;2.30;;;;;;;14.61;66.33;97712.56;5070634;28;20203;-77
2023/03/30 01:32:05;;;;;;;8.83;2.53;;;;;;;14.61;66.65;97725.88;5071000;28;20262;-77
2023/03/30 01:35:05;;;;;;;7.03;2.47;;;;;;;14.61;67.00;97752.47;5068928;28;20217;-77
2023/03/30 01:37:49;;;;;;;7.43;2.27;;;;;;;14.59;71.57;97775.69;5070402;28;20216;-77
2023/03/30 01:40:21;;;;;;;7.53;2.63;;;;;;;14.56;72.50;97765.34;5070475;28;20231;-77
2023/03/30 01:42:56;;;;;;;9.93;2.70;;;;;;;14.50;73.71;97771.22;5070989;28;20216;-77
2023/03/30 01:45:30;;;;;;;8.00;2.53;;;;;;;14.38;76.80;97756.38;5071165;28;20259;-76
2023/03/30 01:48:06;;;;;;;8.23;2.57;;;;;;;14.26;76.89;97752.16;5071077;28;20212;-77
2023/03/30 01:50:39;;;;;;;8.07;2.60;;;;;;;14.20;76.94;97742.94;5070366;28;20249;-77
2023/03/30 01:53:14;;;;;;;10.73;2.63;;;;;;;14.12;78.36;97740.06;5070697;28;20639;-77
2023/03/30 01:55:47;;;;;;;9.43;2.23;;;;;;;14.16;77.61;97746.78;5070630;28;20205;-77
2023/03/30 01:58:20;;;;;;;11.93;2.93;;;;;;;14.20;77.87;97747.38;5070754;28;20224;-77
2023/03/30 02:00:49;;;;;;;12.70;3.67;;;;;;;14.25;78.74;97753.97;5072689;28;20621;-77
2023/03/30 02:03:20;;;;;;;8.50;2.57;;;;;;;14.27;78.87;97748.50;5074551;28;20259;-77
2023/03/30 02:05:50;;;;;;;8.57;2.67;;;;;;;14.24;80.10;97764.75;5074553;28;20695;-77
2023/03/30 02:08:21;;;;;;;9.43;2.47;;;;;;;14.18;80.46;97754.63;5074671;28;20209;-77
2023/03/30 02:10:52;;;;;;;6.87;2.00;;;;;;;14.19;80.49;97751.84;5074197;28;20343;-77
2023/03/30 02:13:20;;;;;;;10.40;2.30;;;;;;;14.11;81.78;97762.31;5074658;28;20576;-77
2023/03/30 02:15:51;;;;;;;9.67;2.90;;;;;;;14.11;81.79;97759.66;5074550;28;20209;-77
2023/03/30 02:18:19;;;;;;;9.07;2.40;;;;;;;14.13;82.10;97757.69;5074299;28;20666;-77
2023/03/30 02:20:46;;;;;;;6.10;2.10;;;;;;;14.11;82.13;97764.97;5074032;28;20225;-77
2023/03/30 02:23:13;;;;;;;9.20;2.60;;;;;;;14.10;81.92;97762.44;5074324;28;20212;-77
2023/03/30 02:25:40;;;;;;;8.30;2.50;;;;;;;14.10;81.47;97763.28;5074283;28;20213;-77
2023/03/30 02:28:08;;;;;;;9.63;2.73;;;;;;;14.08;81.92;97777.69;5074059;28;20291;-77
2023/03/30 02:30:37;;;;;;;6.97;2.90;;;;;;;14.14;81.95;97775.34;5073543;28;20234;-77
2023/03/30 02:33:05;;;;;;;7.53;2.70;;;;;;;14.18;81.20;97775.91;5074001;28;20216;-75
2023/03/30 02:35:53;;;;;;;6.77;2.37;;;;;;;14.15;81.29;97773.50;5074333;28;20210;-76
2023/03/30 02:38:44;;;;;;;8.33;2.40;;;;;;;14.14;81.73;97763.84;5074141;28;20204;-76
2023/03/30 02:41:22;;;;;;;11.30;2.80;;;;;;;14.11;82.32;97774.78;5064679;28;20265;-76
2023/03/30 02:44:00;;;;;;;11.33;2.50;;;;;;;14.07;81.82;97771.56;5073749;28;20229;-76
2023/03/30 02:46:47;;;;;;;7.50;2.70;;;;;;;14.10;82.49;97767.75;5073735;28;20675;-76
2023/03/30 02:49:19;;;;;;;11.30;2.50;;;;;;;13.98;83.12;97764.38;5073411;28;20216;-76
2023/03/30 02:51:48;;;;;;;9.10;2.50;;;;;;;13.97;83.34;97772.47;5073856;28;20233;-78
2023/03/30 02:54:29;;;;;;;11.13;2.87;;;;;;;14.04;82.14;97776.25;5073961;28;20212;-76
2023/03/30 02:57:03;;;;;;;7.53;2.80;;;;;;;14.22;81.92;97764.03;5073737;28;20576;-76
2023/03/30 02:59:37;;;;;;;11.37;2.70;;;;;;;14.22;84.83;97769.34;5073246;28;20209;-79
2023/03/30 03:02:09;;;;;;;12.23;2.97;;;;;;;14.17;86.74;97758.28;5073739;28;20228;-78
2023/03/30 03:04:37;;;;;;;14.03;3.50;;;;;;;14.17;90.79;97772.38;5073846;28;20219;-76
2023/03/30 03:07:04;;;;;;;10.37;3.10;;;;;;;13.99;93.31;97757.25;5073439;28;20206;-76
2023/03/30 03:09:30;;;;;;;8.53;2.57;;;;;;;13.86;95.32;97728.25;5073151;28;20212;-79
2023/03/30 03:11:57;;;;;;;9.80;3.13;;;;;;;13.71;97.52;97726.13;5072329;28;20279;-77
2023/03/30 03:14:25;;;;;;;14.57;3.57;;;;;;;13.64;98.98;97728.47;5073541;28;20288;-76
2023/03/30 03:16:53;;;;;;;5.97;2.23;;;;;;;13.51;100.00;97737.66;5073502;28;20250;-76
2023/03/30 03:19:20;;;;;;;11.17;2.97;;;;;;;13.43;100.00;97734.81;5073018;28;20223;-76
2023/03/30 03:21:46;;;;;;;8.73;2.50;;;;;;;13.36;100.00;97738.97;5072761;28;20672;-76
2023/03/30 03:24:16;;;;;;;9.37;2.90;;;;;;;13.32;100.00;97727.78;5073363;28;20583;-76
2023/03/30 03:26:42;;;;;;;6.17;2.63;;;;;;;13.26;100.00;97716.88;5073379;28;20772;-75
2023/03/30 03:29:09;;;;;;;7.03;2.67;;;;;;;13.26;100.00;97722.19;5073072;28;20650;-76
2023/03/30 03:31:35;;;;;;;8.83;2.60;;;;;;;13.26;100.00;97727.50;5072931;28;20238;-78
2023/03/30 03:34:06;;;;;;;7.10;2.37;;;;;;;13.20;100.00;97725.38;5073000;28;20216;-76
2023/03/30 03:36:33;;;;;;;8.40;2.97;;;;;;;13.15;100.00;97719.59;5072885;28;20262;-76
2023/03/30 03:39:00;;;;;;;5.67;2.40;;;;;;;13.04;100.00;97717.03;5072805;28;20244;-76
2023/03/30 03:41:26;;;;;;;6.97;2.40;;;;;;;13.01;100.00;97712.00;5072381;28;20232;-76
2023/03/30 03:43:53;;;;;;;8.83;2.27;;;;;;;12.93;100.00;97694.03;5072943;28;20211;-77
2023/03/30 03:46:19;;;;;;;8.07;2.87;;;;;;;12.88;100.00;97700.69;5072939;28;20217;-75
2023/03/30 03:48:46;;;;;;;8.10;2.60;;;;;;;12.80;100.00;97698.72;5072742;28;20204;-78
2023/03/30 03:51:14;;;;;;;7.77;2.50;;;;;;;12.82;100.00;97695.91;5073720;28;20238;-75
2023/03/30 03:53:40;;;;;;;12.60;2.70;;;;;;;12.74;100.00;97704.53;5073510;28;20274;-78
2023/03/30 03:56:07;;;;;;;5.77;2.70;;;;;;;12.73;100.00;97707.31;5073632;28;20216;-75
2023/03/30 03:58:34;;;;;;;7.60;2.80;;;;;;;12.78;100.00;97723.69;5073305;28;20207;-78
2023/03/30 04:01:02;;;;;;;8.17;2.50;;;;;;;12.79;100.00;97726.22;5073207;28;20229;-76
2023/03/30 04:03:29;;;;;;;7.63;2.33;;;;;;;12.81;100.00;97720.75;5073304;28;20227;-76
2023/03/30 04:05:58;;;;;;;10.80;3.00;;;;;;;12.82;100.00;97717.13;5074531;28;20226;-78
2023/03/30 04:08:27;;;;;;;8.37;2.53;;;;;;;12.80;100.00;97708.47;5074811;28;20246;-79
2023/03/30 04:10:53;;;;;;;6.07;2.47;;;;;;;12.81;100.00;97699.53;5072888;28;20259;-78
2023/03/30 04:13:20;;;;;;;7.30;2.90;;;;;;;12.84;100.00;97705.41;5073120;28;20209;-79
2023/03/30 04:15:46;;;;;;;8.23;3.00;;;;;;;12.85;100.00;97685.06;5073644;28;20311;-78
2023/03/30 04:18:14;;;;;;;8.30;2.70;;;;;;;12.87;100.00;97677.78;5076886;28;20538;-78
2023/03/30 04:20:40;;;;;;;10.10;3.13;;;;;;;12.92;100.00;97676.44;5083072;28;20221;-78
2023/03/30 04:23:08;;;;;;;9.10;3.77;;;;;;;12.91;100.00;97663.31;5085544;28;20220;-78
2023/03/30 04:25:38;;;;;;;10.17;2.83;;;;;;;12.85;100.00;97653.22;5087105;28;20209;-77
2023/03/30 04:28:05;;;;;;;11.83;3.10;;;;;;;12.84;100.00;97652.38;5079538;28;20255;-78
2023/03/30 04:30:32;;;;;;;10.83;3.13;;;;;;;12.80;100.00;97632.41;5082076;28;20242;-78
2023/03/30 04:33:03;;;;;;;8.13;3.03;;;;;;;12.80;100.00;97644.81;5078758;28;20213;-78
2023/03/30 04:35:31;;;;;;;7.13;2.43;;;;;;;12.82;100.00;97637.56;5071667;28;20215;-78
2023/03/30 04:37:58;;;;;;;9.40;2.77;;;;;;;12.81;100.00;97630.59;5071830;28;20645;-78
2023/03/30 04:40:25;;;;;;;6.33;3.17;;;;;;;12.81;100.00;97619.97;5071224;28;20227;-78
2023/03/30 04:42:54;;;;;;;10.20;2.77;;;;;;;12.79;100.00;97614.84;5071721;28;20208;-78
2023/03/30 04:45:20;;;;;;;9.10;3.13;;;;;;;12.78;100.00;97614.97;5071544;28;20207;-78
2023/03/30 04:47:50;;;;;;;6.53;2.43;;;;;;;12.78;100.00;97609.66;5071418;28;20307;-78
2023/03/30 04:50:16;;;;;;;8.10;3.30;;;;;;;12.76;100.00;97607.13;5070633;28;20296;-78
2023/03/30 04:52:43;;;;;;;16.37;3.27;;;;;;;12.95;100.00;97593.97;5071362;28;20224;-78
2023/03/30 04:55:12;;;;;;;7.30;2.83;;;;;;;12.92;100.00;97596.03;5071218;28;20214;-78
2023/03/30 04:57:39;;;;;;;8.23;3.20;;;;;;;12.89;100.00;97596.31;5071378;28;20222;-78
2023/03/30 05:00:12;;;;;;;8.13;3.80;;;;;;;12.87;100.00;97609.69;5071001;28;20315;-78
2023/03/30 05:02:39;;;;;;;9.97;3.00;;;;;;;12.85;100.00;97610.78;5071205;28;20274;-78
2023/03/30 05:05:06;;;;;;;8.37;2.73;;;;;;;12.81;100.00;97615.53;5071293;28;20217;-78
2023/03/30 05:07:34;;;;;;;8.40;3.07;;;;;;;12.79;100.00;97616.63;5071288;28;20229;-78
2023/03/30 05:10:01;;;;;;;9.00;3.23;;;;;;;12.81;100.00;97614.69;5070970;28;20242;-78
2023/03/30 05:12:27;;;;;;;13.13;3.70;;;;;;;12.80;100.00;97613.84;5071267;28;20221;-78
2023/03/30 05:14:54;;;;;;;8.80;3.20;;;;;;;12.77;100.00;97622.06;5070448;28;20590;-78
2023/03/30 05:17:22;;;;;;;10.03;3.07;;;;;;;12.85;100.00;97616.09;5071003;28;20208;-78
2023/03/30 05:19:48;;;;;;;11.43;3.77;;;;;;;12.89;100.00;97593.66;5070909;28;20236;-78
2023/03/30 05:22:15;;;;;;;9.33;2.83;;;;;;;12.79;100.00;97585.66;5071039;28;20212;-77
2023/03/30 05:24:42;;;;;;;9.57;3.70;;;;;;;12.76;100.00;97582.41;5070836;28;20265;-78
2023/03/30 05:27:08;;;;;;;10.83;3.03;;;;;;;12.80;100.00;97582.03;5071050;28;20211;-78
2023/03/30 05:29:35;;;;;;;10.50;4.03;;;;;;;12.81;100.00;97590.81;5070562;28;20207;-78
2023/03/30 05:32:01;;;;;;;11.40;3.33;;;;;;;12.79;100.00;97588.31;5070776;28;20231;-78
2023/03/30 05:34:29;;;;;;;12.83;3.33;;;;;;;12.80;100.00;97575.88;5070639;28;20214;-77
2023/03/30 05:36:56;;;;;;;10.23;3.73;;;;;;;12.76;100.00;97563.84;5070908;28;20722;-78
2023/03/30 05:39:23;;;;;;;9.57;3.63;;;;;;;12.80;100.00;97552.00;5070704;28;20226;-78
2023/03/30 05:41:50;;;;;;;13.47;4.60;;;;;;;12.77;100.00;97560.25;5101016;22;20338;-75
2023/03/30 05:44:17;;;;;;;8.67;3.90;;;;;;;12.81;100.00;97561.63;5091289;28;20214;-75
2023/03/30 05:46:43;;;;;;;11.50;3.90;;;;;;;12.84;100.00;97564.03;5091339;28;20590;-75
2023/03/30 05:49:10;;;;;;;11.50;3.67;;;;;;;12.89;100.00;97553.88;5090858;28;20208;-75
2023/03/30 05:51:38;;;;;;;14.20;3.60;;;;;;;12.88;100.00;97562.78;5091018;28;20283;-76
2023/03/30 05:54:05;;;;;;;7.03;3.43;;;;;;;12.85;100.00;97577.13;5091097;28;20234;-75
2023/03/30 05:56:32;;;;;;;18.50;4.03;;;;;;;12.84;100.00;97583.41;5091177;28;20215;-76
2023/03/30 05:58:58;;;;;;;11.17;3.37;;;;;;;12.87;100.00;97593.78;5091010;28;20204;-76
2023/03/30 06:01:25;;;;;;;12.50;3.50;;;;;;;12.89;100.00;97596.31;5090778;28;20227;-76
2023/03/30 06:03:51;;;;;;;8.67;3.20;;;;;;;12.92;100.00;97617.25;5091102;28;20210;-76
2023/03/30 06:06:18;;;;;;;11.80;3.50;;;;;;;12.90;100.00;97629.81;5091235;28;20586;-76
2023/03/30 06:08:45;;;;;;;14.77;3.93;;;;;;;12.90;100.00;97648.38;5091285;28;20625;-76
2023/03/30 06:11:12;;;;;;;9.57;3.57;;;;;;;12.82;100.00;97659.63;5090770;28;20232;-76
2023/03/30 06:13:39;;;;;;;11.33;3.63;;;;;;;12.75;100.00;97670.88;5091283;28;20207;-76
2023/03/30 06:16:06;;;;;;;11.30;4.30;;;;;;;12.71;100.00;97685.41;5091534;28;20206;-76
2023/03/30 06:18:33;;;;;;;11.07;4.07;;;;;;;12.66;100.00;97690.25;5091250;28;20211;-76
2023/03/30 06:21:01;;;;;;;12.73;4.57;;;;;;;12.65;100.00;97704.47;5090759;28;20245;-75
2023/03/30 06:23:27;;;;;;;14.87;4.40;;;;;;;12.58;100.00;97703.28;5091052;28;20214;-76
2023/03/30 06:25:56;;;;;;;10.43;3.70;;;;;;;12.50;100.00;97703.94;5091012;28;20698;-76
2023/03/30 06:28:23;;;;;;;10.40;4.03;;;;;;;12.46;100.00;97691.09;5091122;28;20614;-76
2023/03/30 06:30:50;;;;;;;14.77;4.63;;;;;;;12.42;100.00;97692.28;5090564;28;20239;-76
2023/03/30 06:33:17;;;;;;;10.23;4.20;;;;;;;12.42;100.00;97697.59;5090841;28;20215;-76
2023/03/30 06:35:46;;;;;;;14.67;3.83;;;;;;;12.44;100.00;97699.16;5090767;28;20204;-76
2023/03/30 06:38:13;;;;;;;14.63;4.13;;;;;;;12.58;100.00;97713.88;5090474;28;20268;-76
2023/03/30 06:40:39;;;;;;;12.17;3.63;;;;;;;12.64;100.00;97731.94;5090575;28;20235;-76
2023/03/30 06:43:15;;;;;;;11.60;4.00;;;;;;;12.66;100.00;97740.63;5089039;28;20234;-76
2023/03/30 06:45:41;;;;;;;16.10;4.40;;;;;;;12.72;100.00;97732.16;5088211;28;20703;-76
2023/03/30 06:48:08;;;;;;;12.70;4.10;;;;;;;12.78;100.00;97721.84;5093326;28;20298;-76
2023/03/30 06:50:35;;;;;;;10.17;3.63;;;;;;;12.84;100.00;97725.81;5093452;28;20325;-76
2023/03/30 06:53:03;;;;;;;9.07;3.03;;;;;;;12.86;100.00;97737.13;5090999;28;20453;-76
2023/03/30 06:55:29;;;;;;;9.30;2.80;;;;;;;12.92;100.00;97744.56;5092535;28;20676;-76
2023/03/30 06:57:56;;;;;;;10.63;3.23;;;;;;;12.95;100.00;97761.09;5094282;28;20293;-77
2023/03/30 07:00:24;;;;;;;10.77;3.43;;;;;;;12.95;100.00;97749.63;5094071;28;20229;-77
2023/03/30 07:02:50;;;;;;;12.90;3.40;;;;;;;13.00;100.00;97758.91;5092583;28;20210;-76
2023/03/30 07:05:17;;;;;;;15.90;3.60;;;;;;;13.02;100.00;97782.66;5092367;28;20216;-76
2023/03/30 07:07:45;;;;;;;15.57;4.00;;;;;;;13.10;100.00;97788.13;5091648;28;20244;-77
2023/03/30 07:10:11;;;;;;;10.83;4.23;;;;;;;13.13;100.00;97790.50;5092212;28;20231;-77
2023/03/30 07:12:38;;;;;;;11.30;3.40;;;;;;;13.10;100.00;97790.78;5090342;28;20229;-77
2023/03/30 07:15:07;;;;;;;11.77;3.40;;;;;;;13.05;100.00;97792.97;5093233;28;20208;-75
2023/03/30 07:17:36;;;;;;;9.57;3.50;;;;;;;12.99;100.00;97780.25;5093643;28;20657;-76
2023/03/30 07:20:03;;;;;;;11.93;3.50;;;;;;;12.86;100.00;97787.50;5090959;28;20207;-76
2023/03/30 07:22:30;;;;;;;11.43;3.73;;;;;;;12.72;100.00;97806.41;5091731;28;20633;-76
2023/03/30 07:24:57;;;;;;;12.17;3.97;;;;;;;12.57;100.00;97813.78;5094216;28;20256;-76
2023/03/30 07:27:24;;;;;;;14.47;4.43;;;;;;;12.49;100.00;97810.94;5093836;28;20221;-76
2023/03/30 07:29:51;;;;;;;12.53;3.87;;;;;;;12.43;100.00;97814.09;5090529;28;20207;-76
2023/03/30 07:32:19;;;;;;;13.53;4.03;;;;;;;12.41;100.00;97839.03;5092655;28;20321;-76
2023/03/30 07:34:47;;;;;;;10.53;4.43;;;;;;;12.38;100.00;97840.13;5093270;28;20207;-76
2023/03/30 07:37:14;;;;;;;15.93;5.10;;;;;;;12.31;100.00;97816.88;5091831;28;20210;-76
2023/03/30 07:39:40;;;;;;;11.47;4.23;;;;;;;12.27;100.00;97805.69;5089982;28;20681;-76
2023/03/30 07:42:07;;;;;;;11.37;3.87;;;;;;;12.22;100.00;97791.97;5092761;28;20237;-76
2023/03/30 07:44:33;;;;;;;9.83;4.07;;;;;;;12.17;100.00;97811.88;5092626;28;20378;-75
2023/03/30 07:47:00;;;;;;;12.97;4.70;;;;;;;12.12;100.00;97800.78;5092896;28;20254;-74
2023/03/30 07:49:30;;;;;;;12.27;4.57;;;;;;;12.05;100.00;97789.84;5092834;28;20211;-74
2023/03/30 07:51:58;;;;;;;10.90;4.60;;;;;;;12.03;100.00;97785.63;5092774;28;20230;-76
2023/03/30 07:54:25;;;;;;;10.93;4.43;;;;;;;11.99;100.00;97779.72;5092886;28;20213;-75
2023/03/30 07:56:52;;;;;;;11.47;4.77;;;;;;;12.00;100.00;97781.44;5092998;28;20712;-75
2023/03/30 07:59:19;;;;;;;7.57;3.93;;;;;;;12.02;100.00;97791.88;5091402;28;20261;-75
2023/03/30 08:01:49;;;;;;;7.23;3.60;;;;;;;12.04;100.00;97809.34;5091917;28;20227;-75
2023/03/30 08:04:15;;;;;;;8.70;4.10;;;;;;;12.01;100.00;97809.59;5091831;28;20228;-75
2023/03/30 08:06:42;;;;;;;8.90;4.27;;;;;;;12.03;100.00;97820.06;5092581;28;20229;-75
2023/03/30 08:09:10;;;;;;;12.57;4.83;;;;;;;12.09;100.00;97814.25;5092482;28;20211;-75
2023/03/30 08:11:37;;;;;;;8.97;4.70;;;;;;;12.13;100.00;97824.53;5092278;28;20333;-75
2023/03/30 08:14:04;;;;;;;12.37;5.33;;;;;;;12.15;100.00;97853.50;5092489;28;20218;-76
2023/03/30 08:16:31;;;;;;;15.10;5.03;;;;;;;12.11;100.00;97873.28;5092215;28;20207;-75
2023/03/30 08:18:58;;;;;;;13.07;4.47;;;;;;;12.06;100.00;97875.44;5092436;28;20218;-76
2023/03/30 08:21:25;;;;;;;8.97;4.50;;;;;;;12.06;100.00;97871.00;5092126;28;20704;-76
2023/03/30 08:23:52;;;;;;;10.00;4.53;;;;;;;12.03;100.00;97875.69;5092184;28;20337;-76
2023/03/30 08:26:20;;;;;;;9.40;4.53;;;;;;;12.00;100.00;97881.22;5092137;28;20218;-74
2023/03/30 08:28:46;;;;;;;7.33;3.70;;;;;;;11.98;100.00;97878.69;5092126;28;20263;-75
2023/03/30 08:31:14;;;;;;;9.30;4.23;;;;;;;11.96;100.00;97885.06;5091904;28;20336;-75
2023/03/30 08:33:40;;;;;;;9.57;3.90;;;;;;;11.94;100.00;97873.78;5092267;28;20210;-75
2023/03/30 08:36:07;;;;;;;7.80;3.70;;;;;;;11.92;100.00;97865.13;5092197;28;20577;-75
2023/03/30 08:38:33;;;;;;;8.30;4.00;;;;;;;11.89;100.00;97846.78;5092154;28;20220;-75
2023/03/30 08:41:00;;;;;;;10.27;4.00;;;;;;;11.88;100.00;97842.47;5090869;28;20245;-75
2023/03/30 08:43:52;;;;;;;9.30;3.20;;;;;;;11.88;100.00;97797.47;5091015;28;20213;-76
2023/03/30 08:46:20;;;;;;;8.33;3.30;;;;;;;11.91;100.00;97791.91;5090213;28;20206;-75
2023/03/30 08:48:48;;;;;;;8.07;3.37;;;;;;;11.98;100.00;97785.19;5089052;28;20687;-76
2023/03/30 08:51:21;;;;;;;5.67;3.37;;;;;;;12.03;100.00;97812.09;5091361;28;20231;-75
2023/03/30 08:53:52;;;;;;;6.13;2.90;;;;;;;12.00;100.00;97801.78;5091921;28;20207;-77
2023/03/30 08:56:22;;;;;;;7.43;3.77;;;;;;;11.97;100.00;97799.34;5091857;28;20206;-74
2023/03/30 08:58:59;;;;;;;8.80;3.47;;;;;;;12.00;100.00;97786.75;5091961;28;20210;-75
2023/03/30 09:01:33;;;;;;;7.13;3.07;;;;;;;11.91;100.00;97786.59;5091412;28;20228;-75
2023/03/30 09:04:07;;;;;;;8.73;3.53;;;;;;;11.84;100.00;97785.41;5091621;28;20253;-76
2023/03/30 09:06:53;;;;;;;7.87;3.63;;;;;;;11.80;100.00;97789.28;5091768;28;20660;-77
2023/03/30 09:09:22;;;;;;;9.23;4.53;;;;;;;11.82;100.00;97787.34;5090835;28;20207;-77
2023/03/30 09:11:53;;;;;;;6.97;3.93;;;;;;;11.88;100.00;97776.28;5091858;28;20231;-77
2023/03/30 09:14:31;;;;;;;9.73;4.00;;;;;;;11.88;100.00;97778.91;5091965;28;20210;-76
2023/03/30 09:17:03;;;;;;;6.77;4.13;;;;;;;11.88;100.00;97794.81;5091739;28;20212;-76
2023/03/30 09:19:35;;;;;;;8.43;4.07;;;;;;;11.88;100.00;97794.81;5091656;28;20213;-76
2023/03/30 09:22:05;;;;;;;9.23;4.60;;;;;;;11.95;100.00;97796.84;5091735;28;20241;-76
2023/03/30 09:24:32;;;;;;;6.73;4.90;;;;;;;12.03;100.00;97786.47;5091945;28;20227;-77
2023/03/30 09:27:02;;;;;;;7.67;4.60;;;;;;;12.02;100.00;97798.03;5091502;28;20214;-78
2023/03/30 09:29:33;;;;;;;10.33;5.00;;;;;;;12.07;100.00;97800.31;5091557;28;20215;-77
2023/03/30 09:32:04;;;;;;;8.13;4.50;;;;;;;12.19;100.00;97794.03;5091592;28;20232;-77
2023/03/30 09:34:40;;;;;;;7.60;4.70;;;;;;;12.23;100.00;97784.88;5091538;28;20297;-76
2023/03/30 09:37:11;;;;;;;7.00;4.03;;;;;;;12.17;100.00;97785.38;5091623;28;20549;-77
2023/03/30 09:39:38;;;;;;;7.03;4.67;;;;;;;12.24;100.00;97794.50;5091317;28;20297;-77
2023/03/30 09:42:18;;;;;;;7.67;4.70;;;;;;;12.31;100.00;97814.22;5091379;28;20230;-77
2023/03/30 09:44:49;;;;;;;7.20;4.13;;;;;;;12.40;100.00;97816.97;5091283;28;20206;-78
2023/03/30 09:47:24;;;;;;;9.50;5.60;;;;;;;12.50;100.00;97823.22;5091423;28;20230;-76
2023/03/30 09:49:58;;;;;;;7.53;4.23;;;;;;;12.49;100.00;97831.28;5091343;28;20209;-76
2023/03/30 09:52:27;;;;;;;6.17;3.70;;;;;;;12.50;100.00;97827.66;5091283;28;20225;-77
2023/03/30 09:54:54;;;;;;;6.77;5.27;;;;;;;12.52;100.00;97837.19;5091416;28;20203;-77
2023/03/30 09:57:26;;;;;;;9.80;4.20;;;;;;;12.57;100.00;97839.44;5091298;28;20297;-76
2023/03/30 09:59:55;;;;;;;7.87;3.70;;;;;;;12.58;100.00;97838.47;5090482;28;20219;-76
2023/03/30 10:02:23;;;;;;;6.60;3.47;;;;;;;12.63;100.00;97828.34;5091263;28;20216;-77
2023/03/30 10:05:02;;;;;;;6.60;3.23;;;;;;;12.63;100.00;97838.94;5091237;28;20617;-76
2023/03/30 10:07:31;;;;;;;4.67;2.80;;;;;;;12.58;100.00;97846.44;5091181;28;20593;-78
2023/03/30 10:10:00;;;;;;;4.93;2.57;;;;;;;12.50;100.00;97832.97;5091007;28;20676;-77
2023/03/30 10:12:29;;;;;;;3.83;2.50;;;;;;;12.47;100.00;97828.75;5091083;28;20222;-77
2023/03/30 10:15:01;;;;;;;3.87;2.40;;;;;;;12.44;100.00;97829.03;5090844;28;20661;-77
2023/03/30 10:17:29;;;;;;;4.60;2.43;;;;;;;12.40;100.00;97829.41;5091250;28;20678;-77
2023/03/30 10:20:16;;;;;;;3.13;2.43;;;;;;;12.39;100.00;97822.41;5091000;28;20213;-78
2023/03/30 10:22:50;;;;;;;4.50;2.40;;;;;;;12.42;100.00;97815.03;5095427;28;20209;-77
2023/03/30 10:25:20;;;;;;;3.67;2.43;;;;;;;12.52;100.00;97820.41;5094995;28;20207;-77
2023/03/30 10:27:49;;;;;;;3.87;2.63;;;;;;;12.52;100.00;97820.41;5095169;28;20215;-77
2023/03/30 10:30:22;;;;;;;5.47;2.97;;;;;;;12.52;100.00;97804.53;5094535;28;20236;-77
2023/03/30 10:32:49;;;;;;;4.73;2.47;;;;;;;12.50;100.00;97801.16;5094770;28;20224;-78
2023/03/30 10:35:21;;;;;;;6.20;2.80;;;;;;;12.54;100.00;97810.56;5094776;28;20210;-77
2023/03/30 10:37:50;;;;;;;3.10;2.40;;;;;;;12.63;100.00;97799.19;5094573;28;20225;-77
2023/03/30 10:40:19;;;;;;;4.77;2.50;;;;;;;12.73;100.00;97789.50;5093948;28;20231;-77
2023/03/30 10:42:50;;;;;;;3.60;2.40;;;;;;;12.81;100.00;97800.31;5094586;28;20691;-76
2023/03/30 10:45:21;;;;;;;3.70;2.13;;;;;;;12.96;100.00;97791.13;5095107;28;20590;-77
2023/03/30 10:47:56;;;;;;;3.17;2.47;;;;;;;13.18;100.00;97788.31;5094719;28;20217;-77
2023/03/30 10:50:34;;;;;;;3.90;2.17;;;;;;;13.28;100.00;97781.28;5094053;28;20233;-77
2023/03/30 10:53:17;;;;;;;5.23;2.50;;;;;;;13.29;100.00;97782.94;5094550;28;20226;-76
2023/03/30 10:55:56;;;;;;;4.47;2.50;;;;;;;13.30;100.00;97776.66;5094439;28;20202;-76
2023/03/30 10:58:35;;;;;;;2.63;2.20;;;;;;;13.33;100.00;97768.44;5094330;28;20582;-76
2023/03/30 11:01:11;;;;;;;3.80;2.07;;;;;;;13.42;100.00;97770.31;5093959;28;20736;-76
2023/03/30 11:03:41;;;;;;;4.33;2.33;;;;;;;13.48;100.00;97759.16;5094116;28;20252;-76
2023/03/30 11:06:13;;;;;;;4.73;2.30;;;;;;;13.56;100.00;97769.97;5094196;28;20204;-76
2023/03/30 11:08:44;;;;;;;4.47;2.30;;;;;;;13.68;100.00;97766.25;5094260;28;20206;-76
2023/03/30 11:11:17;;;;;;;5.17;2.90;;;;;;;13.92;100.00;97780.00;5093565;28;20234;-76
2023/03/30 11:13:49;;;;;;;3.93;2.70;;;;;;;14.17;100.00;97782.19;5094277;28;20232;-76
2023/03/30 11:16:21;;;;;;;3.33;2.17;;;;;;;14.47;100.00;97776.78;5094254;28;20211;-76
2023/03/30 11:18:54;;;;;;;4.23;2.57;;;;;;;14.79;100.00;97788.03;5094378;28;20264;-76
2023/03/30 11:21:26;;;;;;;6.10;2.20;;;;;;;14.91;100.00;97786.91;5093709;28;20594;-77
2023/03/30 11:23:55;;;;;;;5.53;2.40;;;;;;;15.03;100.00;97799.91;5093906;28;20222;-76
2023/03/30 11:26:27;;;;;;;4.97;2.30;;;;;;;15.05;99.46;97783.81;5093988;28;20219;-77
2023/03/30 11:29:02;;;;;;;5.17;2.53;;;;;;;15.06;95.83;97774.84;5094222;28;20223;-77
2023/03/30 11:31:42;;;;;;;4.47;1.97;;;;;;;15.06;95.30;97770.38;5093739;28;20271;-77
2023/03/30 11:34:16;;;;;;;2.60;2.20;;;;;;;15.04;91.16;97755.53;5092881;28;20703;-77
2023/03/30 11:36:48;;;;;;;3.77;2.50;;;;;;;15.01;91.57;97777.09;5093836;28;20220;-76